createdAt,value
2023-01-03T00:00:40.579Z,2.58
2023-01-03T00:03:08.439Z,1.98
2023-01-03T00:05:37.088Z,2.38
2023-01-03T00:08:05.174Z,1.63
2023-01-03T00:10:34.488Z,2.15
2023-01-03T00:13:01.427Z,2.00
2023-01-03T00:15:29.367Z,2.08
2023-01-03T00:17:57.264Z,1.85
2023-01-03T00:20:25.188Z,2.03
2023-01-03T00:22:53.057Z,1.90
2023-01-03T00:25:20.952Z,1.60
2023-01-03T00:27:50.257Z,2.05
2023-01-03T00:30:18.389Z,1.80
2023-01-03T00:32:46.332Z,2.25
2023-01-03T00:35:14.198Z,2.08
2023-01-03T00:37:42.089Z,1.65
2023-01-03T00:40:11.271Z,1.50
2023-01-03T00:42:53.007Z,2.00
2023-01-03T00:45:25.368Z,2.45
2023-01-03T00:47:53.692Z,1.85
2023-01-03T00:50:21.655Z,1.90
2023-01-03T00:52:49.539Z,1.60
2023-01-03T00:55:17.615Z,1.77
2023-01-03T00:57:45.528Z,1.48
2023-01-03T01:00:14.573Z,1.13
2023-01-03T01:02:46.935Z,1.20
2023-01-03T01:05:14.989Z,1.30
2023-01-03T01:07:42.884Z,1.35
2023-01-03T01:10:10.918Z,1.05
2023-01-03T01:12:39.454Z,1.50
2023-01-03T01:15:08.300Z,1.20
2023-01-03T01:17:36.240Z,1.08
2023-01-03T01:20:06.443Z,1.50
2023-01-03T01:22:34.492Z,1.20
2023-01-03T01:25:02.854Z,1.88
2023-01-03T01:27:31.673Z,1.63
2023-01-03T01:29:59.527Z,1.27
2023-01-03T01:32:27.408Z,1.40
2023-01-03T01:34:55.557Z,1.42
2023-01-03T01:37:24.760Z,1.20
2023-01-03T01:39:52.753Z,1.30
2023-01-03T01:42:37.903Z,1.27
2023-01-03T01:45:06.863Z,1.02
2023-01-03T01:47:46.099Z,1.05
2023-01-03T01:50:23.233Z,0.90
2023-01-03T01:52:56.925Z,0.95
2023-01-03T01:55:31.169Z,0.88
2023-01-03T01:57:59.344Z,1.00
2023-01-03T02:00:27.201Z,1.15
2023-01-03T02:02:56.630Z,1.02
2023-01-03T02:05:27.141Z,0.98
2023-01-03T02:07:57.002Z,0.80
2023-01-03T02:10:36.125Z,1.00
2023-01-03T02:13:12.554Z,0.90
2023-01-03T02:15:53.791Z,0.95
2023-01-03T02:18:40.840Z,0.88
2023-01-03T02:21:50.135Z,0.98
2023-01-03T02:25:07.670Z,0.60
2023-01-03T02:28:10.792Z,0.98
2023-01-03T02:30:43.430Z,0.50
2023-01-03T02:33:25.099Z,0.70
2023-01-03T02:36:01.963Z,1.10
2023-01-03T02:38:42.073Z,1.00
2023-01-03T02:43:47.245Z,0.88
2023-01-03T02:46:24.940Z,1.30
2023-01-03T02:48:59.458Z,1.23
2023-01-03T02:51:32.981Z,1.23
2023-01-03T02:54:03.568Z,1.20
2023-01-03T02:56:36.635Z,1.02
2023-01-03T02:59:09.692Z,1.30
2023-01-03T03:01:44.965Z,1.40
2023-01-03T03:04:14.732Z,1.25
2023-01-03T03:06:48.818Z,1.85
2023-01-03T03:09:16.738Z,1.10
2023-01-03T03:12:02.840Z,1.63
2023-01-03T03:14:36.169Z,1.85
2023-01-03T03:17:12.408Z,1.08
2023-01-03T03:20:01.771Z,1.30
2023-01-03T03:22:55.527Z,1.42
2023-01-03T03:25:27.183Z,1.00
2023-01-03T03:28:17.778Z,1.63
2023-01-03T03:30:49.641Z,1.70
2023-01-03T03:33:21.537Z,2.05
2023-01-03T03:35:55.749Z,1.10
2023-01-03T03:38:28.734Z,1.27
2023-01-03T03:41:29.695Z,1.20
2023-01-03T03:44:22.837Z,1.33
2023-01-03T03:46:57.113Z,1.30
2023-01-03T03:49:39.201Z,1.35
2023-01-03T03:52:10.201Z,1.38
2023-01-03T03:54:40.573Z,1.67
2023-01-03T03:57:14.695Z,1.73
2023-01-03T03:59:46.504Z,1.60
2023-01-03T04:02:18.032Z,1.75
2023-01-03T04:04:50.890Z,1.30
2023-01-03T04:07:18.775Z,1.60
2023-01-03T04:09:46.756Z,1.60
2023-01-03T04:12:14.693Z,1.58
2023-01-03T04:14:42.620Z,1.00
2023-01-03T04:17:11.207Z,1.58
2023-01-03T04:19:39.085Z,1.48
2023-01-03T04:22:08.380Z,1.15
2023-01-03T04:24:36.282Z,1.58
2023-01-03T04:27:04.483Z,1.00
2023-01-03T04:29:38.830Z,1.30
2023-01-03T04:32:08.098Z,1.70
2023-01-03T04:34:36.216Z,1.55
2023-01-03T04:37:04.235Z,3.38
2023-01-03T04:39:33.566Z,1.48
2023-01-03T04:42:01.789Z,1.23
2023-01-03T04:44:28.842Z,1.30
2023-01-03T04:46:56.718Z,1.52
2023-01-03T04:49:24.578Z,1.00
2023-01-03T04:51:52.454Z,1.10
2023-01-03T04:54:20.360Z,1.38
2023-01-03T04:56:50.853Z,1.10
2023-01-03T04:59:21.152Z,1.05
2023-01-03T05:01:52.628Z,1.30
2023-01-03T05:04:20.671Z,1.00
2023-01-03T05:06:48.781Z,1.63
2023-01-03T05:09:16.629Z,1.65
2023-01-03T05:11:44.547Z,0.93
2023-01-03T05:14:14.729Z,1.25
2023-01-03T05:16:42.874Z,0.90
2023-01-03T05:19:11.116Z,1.08
2023-01-03T05:21:56.165Z,1.15
2023-01-03T05:24:41.451Z,1.10
2023-01-03T05:27:09.416Z,0.88
2023-01-03T05:29:38.980Z,0.90
2023-01-03T05:32:07.166Z,1.35
2023-01-03T05:34:35.063Z,1.00
2023-01-03T05:37:02.871Z,0.90
2023-01-03T05:39:30.821Z,0.75
2023-01-03T05:42:01.619Z,1.30
2023-01-03T05:44:31.328Z,0.90
2023-01-03T05:47:01.675Z,1.27
2023-01-03T05:49:29.614Z,1.20
2023-01-03T05:51:57.541Z,1.15
2023-01-03T05:54:25.959Z,1.95
2023-01-03T05:56:53.878Z,1.23
2023-01-03T05:59:22.814Z,1.15
2023-01-03T06:01:51.197Z,1.50
2023-01-03T06:04:20.842Z,1.52
2023-01-03T06:06:48.824Z,1.00
2023-01-03T06:09:16.920Z,1.35
2023-01-03T06:11:44.869Z,1.10
2023-01-03T06:14:12.760Z,1.05
2023-01-03T06:16:58.009Z,0.90
2023-01-03T06:19:27.412Z,1.65
2023-01-03T06:21:55.243Z,1.10
2023-01-03T06:24:23.137Z,0.82
2023-01-03T06:26:51.009Z,0.95
2023-01-03T06:29:18.999Z,0.80
2023-01-03T06:31:46.901Z,0.93
2023-01-03T06:34:14.824Z,0.73
2023-01-03T06:36:44.171Z,0.82
2023-01-03T06:39:12.126Z,0.52
2023-01-03T06:41:40.116Z,0.73
2023-01-03T06:44:07.994Z,1.10
2023-01-03T06:46:53.489Z,0.88
2023-01-03T06:49:38.930Z,1.52
2023-01-03T06:52:33.085Z,0.90
2023-01-03T06:55:01.102Z,0.95
2023-01-03T06:57:29.358Z,0.57
2023-01-03T06:59:57.225Z,0.80
2023-01-03T07:02:25.333Z,0.98
2023-01-03T07:04:53.565Z,0.68
2023-01-03T07:07:22.964Z,0.45
2023-01-03T07:09:50.832Z,0.55
2023-01-03T07:12:37.653Z,0.70
2023-01-03T07:15:06.857Z,0.70
2023-01-03T07:17:34.831Z,0.70
2023-01-03T07:20:02.815Z,0.68
2023-01-03T07:22:32.069Z,0.70
2023-01-03T07:24:59.875Z,0.70
2023-01-03T07:27:27.771Z,0.77
2023-01-03T07:29:56.015Z,0.52
2023-01-03T07:32:23.876Z,0.60
2023-01-03T07:34:51.695Z,0.95
2023-01-03T07:37:19.620Z,0.68
2023-01-03T07:39:48.956Z,0.80
2023-01-03T07:42:34.040Z,0.70
2023-01-03T07:45:01.962Z,0.50
2023-01-03T07:47:29.879Z,0.75
2023-01-03T07:49:57.791Z,0.60
2023-01-03T07:52:25.702Z,0.63
2023-01-03T07:54:55.193Z,0.40
2023-01-03T07:57:23.103Z,0.40
2023-01-03T07:59:51.014Z,0.35
2023-01-03T08:02:20.338Z,0.57
2023-01-03T08:04:48.545Z,0.52
2023-01-03T08:07:16.571Z,0.55
2023-01-03T08:10:02.071Z,0.50
2023-01-03T08:12:48.768Z,0.93
2023-01-03T08:15:16.789Z,0.50
2023-01-03T08:17:44.969Z,0.90
2023-01-03T08:20:12.906Z,1.02
2023-01-03T08:22:40.843Z,0.40
2023-01-03T08:25:09.634Z,0.50
2023-01-03T08:27:39.047Z,0.20
2023-01-03T08:30:08.034Z,0.57
2023-01-03T08:32:36.191Z,0.63
2023-01-03T08:35:04.937Z,0.50
2023-01-03T08:37:33.073Z,0.38
2023-01-03T08:40:04.971Z,0.55
2023-01-03T08:42:34.850Z,0.50
2023-01-03T08:45:10.022Z,0.40
2023-01-03T08:47:38.177Z,0.40
2023-01-03T08:50:06.875Z,0.50
2023-01-03T08:52:35.514Z,1.85
2023-01-03T08:55:03.587Z,0.40
2023-01-03T08:57:31.512Z,0.70
2023-01-03T08:59:59.533Z,0.90
2023-01-03T09:02:29.275Z,0.65
2023-01-03T09:07:25.008Z,0.45
2023-01-03T09:09:53.000Z,0.70
2023-01-03T09:12:21.064Z,0.47
2023-01-03T09:14:48.964Z,0.40
2023-01-03T09:17:16.945Z,0.47
2023-01-03T09:19:46.196Z,0.40
2023-01-03T09:22:14.156Z,0.70
2023-01-03T09:24:42.070Z,0.60
2023-01-03T09:27:10.041Z,0.30
2023-01-03T09:29:37.937Z,0.50
2023-01-03T09:32:06.252Z,0.40
2023-01-03T09:34:34.218Z,0.60
2023-01-03T09:37:04.427Z,0.47
2023-01-03T09:39:32.374Z,0.52
2023-01-03T09:42:27.295Z,0.22
2023-01-03T09:44:55.492Z,0.40
2023-01-03T09:47:26.490Z,0.47
2023-01-03T09:50:27.729Z,0.40
2023-01-03T09:53:04.131Z,0.40
2023-01-03T09:55:58.664Z,0.40
2023-01-03T09:58:43.936Z,0.40
2023-01-03T10:01:45.495Z,0.40
2023-01-03T10:04:44.822Z,0.30
2023-01-03T10:07:27.234Z,0.75
2023-01-03T10:10:13.937Z,0.55
2023-01-03T10:12:53.706Z,0.40
2023-01-03T10:15:35.496Z,0.30
2023-01-03T10:18:16.596Z,0.35
2023-01-03T10:20:49.238Z,0.82
2023-01-03T10:23:17.479Z,0.40
2023-01-03T10:25:48.331Z,0.40
2023-01-03T10:28:19.779Z,0.32
2023-01-03T10:31:08.357Z,0.55
2023-01-03T10:33:39.846Z,0.65
2023-01-03T10:36:09.340Z,0.75
2023-01-03T10:38:44.850Z,0.43
2023-01-03T10:41:24.308Z,0.30
2023-01-03T10:43:59.393Z,0.43
2023-01-03T10:46:29.954Z,0.43
2023-01-03T10:49:29.741Z,0.50
2023-01-03T10:52:02.208Z,1.60
2023-01-03T10:54:47.463Z,0.40
2023-01-03T10:57:43.668Z,0.45
2023-01-03T11:00:34.164Z,0.40
2023-01-03T11:03:16.424Z,0.43
2023-01-03T11:05:47.027Z,0.60
2023-01-03T11:08:18.260Z,0.60
2023-01-03T11:11:26.577Z,0.40
2023-01-03T11:14:07.061Z,0.47
2023-01-03T11:16:34.908Z,0.68
2023-01-03T11:19:04.417Z,0.40
2023-01-03T11:21:40.577Z,0.30
2023-01-03T11:24:20.609Z,0.30
2023-01-03T11:26:53.925Z,0.40
2023-01-03T11:29:50.313Z,0.50
2023-01-03T11:32:30.061Z,0.65
2023-01-03T11:35:26.348Z,0.63
2023-01-03T11:38:05.711Z,0.30
2023-01-03T11:40:45.384Z,0.60
2023-01-03T11:43:36.856Z,0.50
2023-01-03T11:46:23.505Z,0.50
2023-01-03T11:49:07.259Z,0.55
2023-01-03T11:51:40.593Z,0.47
2023-01-03T11:54:17.921Z,0.60
2023-01-03T11:56:48.200Z,0.30
2023-01-03T11:59:48.597Z,0.60
2023-01-03T12:03:03.276Z,0.73
2023-01-03T12:05:40.843Z,0.30
2023-01-03T12:08:30.348Z,0.68
2023-01-03T12:11:06.985Z,0.40
2023-01-03T12:13:41.627Z,0.38
2023-01-03T12:16:15.477Z,0.30
2023-01-03T12:18:51.559Z,0.30
2023-01-03T12:21:30.957Z,0.77
2023-01-03T12:24:06.357Z,0.32
2023-01-03T12:26:37.350Z,0.32
2023-01-03T12:29:11.831Z,0.20
2023-01-03T12:31:46.120Z,0.28
2023-01-03T12:34:25.073Z,0.40
2023-01-03T12:37:08.491Z,0.38
2023-01-03T12:39:45.298Z,0.57
2023-01-03T12:42:22.938Z,0.30
2023-01-03T12:44:59.149Z,0.30
2023-01-03T12:47:32.087Z,0.40
2023-01-03T12:50:06.602Z,0.38
2023-01-03T12:52:35.662Z,0.38
2023-01-03T12:55:14.811Z,0.63
2023-01-03T12:58:10.149Z,0.28
2023-01-03T13:01:00.951Z,0.30
2023-01-03T13:03:35.730Z,0.38
2023-01-03T13:06:15.151Z,0.75
2023-01-03T13:08:49.005Z,0.30
2023-01-03T13:11:23.505Z,0.20
2023-01-03T13:13:55.316Z,0.38
2023-01-03T13:16:45.946Z,0.32
2023-01-03T13:19:56.408Z,0.40
2023-01-03T13:22:52.013Z,0.40
2023-01-03T13:25:41.143Z,0.35
2023-01-03T13:28:30.861Z,0.60
2023-01-03T13:31:37.159Z,0.45
2023-01-03T13:34:17.586Z,0.30
2023-01-03T13:37:11.559Z,0.47
2023-01-03T13:39:45.579Z,0.40
2023-01-03T13:42:22.348Z,0.65
2023-01-03T13:44:50.483Z,0.65
2023-01-03T13:47:26.928Z,0.30
2023-01-03T13:49:54.952Z,0.40
2023-01-03T13:52:40.058Z,0.35
2023-01-03T13:55:34.409Z,0.68
2023-01-03T13:58:03.336Z,0.63
2023-01-03T14:00:32.363Z,0.30
2023-01-03T14:03:40.197Z,0.27
2023-01-03T14:06:40.007Z,0.50
2023-01-03T14:09:29.772Z,0.47
2023-01-03T14:12:29.794Z,0.75
2023-01-03T14:17:30.591Z,0.47
2023-01-03T14:20:06.144Z,0.47
2023-01-03T14:22:39.414Z,0.50
2023-01-03T14:25:10.699Z,0.50
2023-01-03T14:27:41.704Z,0.80
2023-01-03T14:30:22.110Z,0.52
2023-01-03T14:32:50.136Z,0.57
2023-01-03T14:35:34.111Z,0.60
2023-01-03T14:38:06.771Z,0.60
2023-01-03T14:40:35.540Z,0.65
2023-01-03T14:43:08.509Z,0.50
2023-01-03T14:45:37.708Z,0.73
2023-01-03T14:48:07.385Z,0.52
2023-01-03T14:50:35.731Z,0.50
2023-01-03T14:53:04.016Z,0.47
2023-01-03T14:55:33.780Z,0.60
2023-01-03T14:58:04.739Z,0.50
2023-01-03T15:00:37.174Z,0.57
2023-01-03T15:03:05.597Z,0.40
2023-01-03T15:05:35.195Z,0.45
2023-01-03T15:08:11.144Z,0.73
2023-01-03T15:10:46.319Z,0.75
2023-01-03T15:13:20.350Z,0.60
2023-01-03T15:15:54.700Z,0.90
2023-01-03T15:18:25.133Z,0.65
2023-01-03T15:20:55.152Z,0.65
2023-01-03T15:23:34.693Z,0.70
2023-01-03T15:26:02.832Z,0.55
2023-01-03T15:28:33.191Z,0.60
2023-01-03T15:31:17.469Z,0.50
2023-01-03T15:33:45.800Z,0.32
2023-01-03T15:36:19.214Z,0.77
2023-01-03T15:38:49.876Z,0.60
2023-01-03T15:41:43.535Z,0.90
2023-01-03T15:44:12.015Z,1.08
2023-01-03T15:46:45.070Z,0.70
2023-01-03T15:49:16.160Z,0.85
2023-01-03T15:51:44.127Z,0.75
2023-01-03T15:54:14.533Z,0.57
2023-01-03T15:56:49.059Z,0.50
2023-01-03T15:59:24.013Z,0.60
2023-01-03T16:01:54.065Z,0.47
2023-01-03T16:04:22.714Z,0.50
2023-01-03T16:06:52.206Z,0.50
2023-01-03T16:09:20.579Z,0.50
2023-01-03T16:11:52.468Z,0.77
2023-01-03T16:14:24.299Z,0.45
2023-01-03T16:16:56.933Z,0.60
2023-01-03T16:19:27.861Z,0.70
2023-01-03T16:22:32.688Z,0.40
2023-01-03T16:24:46.588Z,0.40
2023-01-03T16:27:20.425Z,0.50
2023-01-03T16:29:48.664Z,0.43
2023-01-03T16:32:22.039Z,0.50
2023-01-03T16:34:50.816Z,0.40
2023-01-03T16:37:18.720Z,0.73
2023-01-03T16:39:48.673Z,0.77
2023-01-03T16:42:16.967Z,0.60
2023-01-03T16:44:47.611Z,0.80
2023-01-03T16:47:22.085Z,0.90
2023-01-03T16:49:55.456Z,0.73
2023-01-03T16:52:27.274Z,0.47
2023-01-03T16:54:55.763Z,0.60
2023-01-03T16:57:24.121Z,0.75
2023-01-03T16:59:52.086Z,0.68
2023-01-03T17:02:21.583Z,0.50
2023-01-03T17:04:49.610Z,0.73
2023-01-03T17:07:22.564Z,1.00
2023-01-03T17:09:52.667Z,0.88
2023-01-03T17:12:24.220Z,1.40
2023-01-03T17:14:52.611Z,0.65
2023-01-03T17:17:23.625Z,0.80
2023-01-03T17:20:07.341Z,0.55
2023-01-03T17:22:35.508Z,1.35
2023-01-03T17:25:03.695Z,1.13
2023-01-03T17:27:33.333Z,0.80
2023-01-03T17:32:34.293Z,0.82
2023-01-03T17:35:03.329Z,0.73
2023-01-03T17:37:45.445Z,1.25
2023-01-03T17:40:27.685Z,0.90
2023-01-03T17:43:00.149Z,0.82
2023-01-03T17:45:45.674Z,0.77
2023-01-03T17:48:32.398Z,1.10
2023-01-03T17:51:01.763Z,1.00
2023-01-03T17:53:30.723Z,0.95
2023-01-03T17:55:58.606Z,0.75
2023-01-03T17:58:33.090Z,0.80
2023-01-03T18:01:01.398Z,0.77
2023-01-03T18:03:31.217Z,1.17
2023-01-03T18:08:27.760Z,1.80
2023-01-03T18:10:55.782Z,0.98
2023-01-03T18:13:26.303Z,0.98
2023-01-03T18:15:55.768Z,0.90
2023-01-03T18:18:26.039Z,1.00
2023-01-03T18:20:56.301Z,0.90
2023-01-03T18:23:27.891Z,1.10
2023-01-03T18:25:58.119Z,1.00
2023-01-03T18:28:27.885Z,1.58
2023-01-03T18:30:57.022Z,0.90
2023-01-03T18:33:26.059Z,0.75
2023-01-03T18:35:55.473Z,0.95
2023-01-03T18:38:29.396Z,1.13
2023-01-03T18:41:04.489Z,1.35
2023-01-03T18:43:34.091Z,1.15
2023-01-03T18:46:02.059Z,1.00
2023-01-03T18:48:30.169Z,1.33
2023-01-03T18:51:00.143Z,1.20
2023-01-03T18:53:31.280Z,0.82
2023-01-03T18:55:59.468Z,1.35
2023-01-03T18:58:33.030Z,1.10
2023-01-03T19:01:01.857Z,1.10
2023-01-03T19:03:32.249Z,1.08
2023-01-03T19:06:04.351Z,1.67
2023-01-03T19:08:34.392Z,1.15
2023-01-03T19:11:07.185Z,1.50
2023-01-03T19:13:51.363Z,1.30
2023-01-03T19:16:23.477Z,1.20
2023-01-03T19:18:51.914Z,1.33
2023-01-03T19:21:22.587Z,1.10
2023-01-03T19:23:58.782Z,1.10
2023-01-03T19:26:30.008Z,0.98
2023-01-03T19:29:00.234Z,0.90
2023-01-03T19:31:30.133Z,0.95
2023-01-03T19:36:27.137Z,1.00
2023-01-03T19:38:55.030Z,1.10
2023-01-03T19:41:22.965Z,1.17
2023-01-03T19:43:51.261Z,1.13
2023-01-03T19:46:19.728Z,0.90
2023-01-03T19:48:47.712Z,1.00
2023-01-03T19:51:15.658Z,0.73
2023-01-03T19:53:44.942Z,1.05
2023-01-03T19:56:24.063Z,1.35
2023-01-03T19:58:54.456Z,1.00
2023-01-03T20:01:25.991Z,1.00
2023-01-03T20:03:54.444Z,1.35
2023-01-03T20:06:22.496Z,0.80
2023-01-03T20:08:52.668Z,1.15
2023-01-03T20:11:23.441Z,1.20
2023-01-03T20:13:51.361Z,1.20
2023-01-03T20:16:19.368Z,1.38
2023-01-03T20:18:48.224Z,1.13
2023-01-03T20:21:23.036Z,1.20
2023-01-03T20:23:55.321Z,1.05
2023-01-03T20:26:25.543Z,0.90
2023-01-03T20:28:55.251Z,1.20
2023-01-03T20:31:23.311Z,1.45
2023-01-03T20:33:52.166Z,1.30
2023-01-03T20:36:23.718Z,1.00
2023-01-03T20:38:56.157Z,1.50
2023-01-03T20:41:36.256Z,1.40
2023-01-03T20:44:07.372Z,1.30
2023-01-03T20:46:35.530Z,1.13
2023-01-03T20:49:05.069Z,1.20
2023-01-03T20:51:34.211Z,0.93
2023-01-03T20:54:03.493Z,0.90
2023-01-03T20:56:32.843Z,1.20
2023-01-03T20:59:00.815Z,1.13
2023-01-03T21:01:28.861Z,1.48
2023-01-03T21:03:57.188Z,1.23
2023-01-03T21:06:29.162Z,0.98
2023-01-03T21:08:58.240Z,1.00
2023-01-03T21:11:30.194Z,1.00
2023-01-03T21:13:59.352Z,1.08
2023-01-03T21:16:33.324Z,1.27
2023-01-03T21:19:13.708Z,1.08
2023-01-03T21:21:42.448Z,1.00
2023-01-03T21:24:11.455Z,0.95
2023-01-03T21:26:41.595Z,1.08
2023-01-03T21:29:09.729Z,1.10
2023-01-03T21:31:38.623Z,1.20
2023-01-03T21:34:08.208Z,1.17
2023-01-03T21:36:37.515Z,1.15
2023-01-03T21:39:06.030Z,1.00
2023-01-03T21:41:55.888Z,1.00
2023-01-03T21:46:53.045Z,0.90
2023-01-03T21:49:21.443Z,1.30
2023-01-03T21:51:49.421Z,0.80
2023-01-03T21:54:17.315Z,0.98
2023-01-03T21:56:46.746Z,0.90
2023-01-03T22:02:06.012Z,0.90
2023-01-03T22:04:35.320Z,1.42
2023-01-03T22:07:03.248Z,1.00
2023-01-03T22:09:49.580Z,1.15
2023-01-03T22:12:18.313Z,1.15
2023-01-03T22:14:46.407Z,0.93
2023-01-03T22:17:16.456Z,0.88
2023-01-03T22:19:44.440Z,0.77
2023-01-03T22:22:12.456Z,1.10
2023-01-03T22:24:40.391Z,1.23
2023-01-03T22:27:08.385Z,1.27
2023-01-03T22:29:36.300Z,0.68
2023-01-03T22:32:04.425Z,1.05
2023-01-03T22:34:33.765Z,0.95
2023-01-03T22:37:01.675Z,1.05
2023-01-03T22:39:29.491Z,0.80
2023-01-03T22:41:57.876Z,1.02
2023-01-03T22:44:25.762Z,0.68
2023-01-03T22:46:53.644Z,0.75
2023-01-03T22:49:21.593Z,0.90
2023-01-03T22:51:50.921Z,0.70
2023-01-03T22:54:18.907Z,0.82
2023-01-03T22:56:47.036Z,0.80
2023-01-03T22:59:15.060Z,0.93
2023-01-03T23:01:43.559Z,1.20
2023-01-03T23:04:12.721Z,1.08
2023-01-03T23:06:40.883Z,1.20
2023-01-03T23:09:12.002Z,1.10
2023-01-03T23:11:58.221Z,1.17
2023-01-03T23:14:27.613Z,1.08
2023-01-03T23:16:56.208Z,0.95
2023-01-03T23:19:26.263Z,1.10
2023-01-03T23:21:56.394Z,0.70
2023-01-03T23:24:26.141Z,0.82
2023-01-03T23:26:54.695Z,0.95
2023-01-03T23:29:22.706Z,1.05
2023-01-03T23:31:50.631Z,1.10
2023-01-03T23:34:18.483Z,1.10
2023-01-03T23:36:46.496Z,1.60
2023-01-03T23:39:15.824Z,1.30
2023-01-03T23:41:45.899Z,1.02
2023-01-03T23:44:13.880Z,1.40
2023-01-03T23:46:42.087Z,0.90
2023-01-03T23:49:11.367Z,0.80
2023-01-03T23:51:39.310Z,0.80
2023-01-03T23:54:07.405Z,1.02
2023-01-03T23:56:35.426Z,1.10
2023-01-03T23:59:05.457Z,1.10
